»·PEaware :: AAL2415 TJSJ-KMIA

AAL2415 :: TJSJ-KMIA

FLIGHT INFORMATION

Flight Status: Arrived
Operator:
American Airlines
More flights by this operator :: More flights under this callsign
Pilot: Edgar M. (23243)
Aircraft: BOEING 737-800
(B738)
More flights by this aircraft type
Origin: TJSJ Luis Munoz Marin Intl
Puerto Rico
Destination: KMIA Miami Intl
United States
More flights between these airports :: More routes between these airports
Route: ACONY3 SAPPO R507 GTK A555 EVETS HODGY ZUMGO CYCLP HENDN SARCO
File this flight plan on PilotEdge
Remarks: NONE
Altitude:
(Current/Filed)
36,000ft
Speed:
(Current/Filed)
451kts
Departed: 31-Oct-19 06:56 AM
Arrived: 31-Oct-19 09:14 AM
Distance/Time
Traveled:
907nm/2:18
Distance/Time
To Go:
Arrived

Flight Plot

Page will automatically refresh every two minutes.

Flight plan parsing failed; only flown route is shown


Map Options




Map Legend


Flown Route
Filed Route
Departure Airport
Arrival Airport
Navaid (VOR, NDB)
Fix

Horizontal Profiles

Position Reports

Time Latitude Longitude Heading Altitude Ground
Speed
31-Oct-19 06:43 18.435505 -66.006526 0 13ft 0kts
31-Oct-19 06:44 18.435505 -66.006526 0 13ft 0kts
31-Oct-19 06:45 18.435505 -66.006526 0 13ft 0kts
31-Oct-19 06:46 18.435505 -66.006526 0 13ft 0kts
31-Oct-19 06:47 18.435505 -66.006526 0 13ft 0kts
31-Oct-19 06:48 18.435371 -66.006526 359 14ft 2kts
31-Oct-19 06:49 18.434820 -66.006526 0 14ft 1kts
31-Oct-19 06:50 18.434627 -66.006278 269 14ft 0kts
31-Oct-19 06:51 18.434627 -66.006278 269 13ft 0kts
31-Oct-19 06:52 18.434626 -66.006351 269 13ft 5kts
31-Oct-19 06:53 18.434658 -66.011597 270 13ft 19kts
31-Oct-19 06:54 18.437529 -66.013726 317 13ft 12kts
31-Oct-19 06:55 18.441350 -66.008506 66 14ft 113kts
31-Oct-19 06:56 18.472121 -65.974391 356 1710ft 183kts
31-Oct-19 06:57 18.516941 -66.011541 313 3692ft 241kts
31-Oct-19 06:58 18.565487 -66.066439 313 6477ft 276kts
31-Oct-19 06:59 18.619280 -66.127356 314 9720ft 292kts
31-Oct-19 07:00 18.678462 -66.194413 314 12150ft 329kts
31-Oct-19 07:01 18.741947 -66.266469 314 14995ft 343kts
31-Oct-19 07:02 18.808176 -66.341719 314 17548ft 358kts
31-Oct-19 07:03 18.876963 -66.420000 314 19956ft 370kts
31-Oct-19 07:04 18.948756 -66.499978 319 22162ft 380kts
31-Oct-19 07:06 19.026279 -66.577655 319 24191ft 390kts
31-Oct-19 07:07 19.102345 -66.661047 312 26038ft 401kts
31-Oct-19 07:08 19.173796 -66.753246 312 27732ft 410kts
31-Oct-19 07:09 19.246739 -66.847014 312 29288ft 418kts
31-Oct-19 07:10 19.321321 -66.943053 312 30723ft 426kts
31-Oct-19 07:11 19.396425 -67.039924 312 32239ft 428kts
31-Oct-19 07:12 19.471657 -67.137111 312 33681ft 428kts
31-Oct-19 07:13 19.546898 -67.234464 312 34989ft 427kts
31-Oct-19 07:14 19.622060 -67.331865 312 36047ft 430kts
31-Oct-19 07:15 19.699356 -67.432199 312 36062ft 441kts
31-Oct-19 07:16 19.776333 -67.532299 312 36059ft 438kts
31-Oct-19 07:17 19.853520 -67.632832 312 36051ft 440kts
31-Oct-19 07:18 19.930795 -67.733660 312 36043ft 439kts
31-Oct-19 07:19 20.007747 -67.834230 312 36044ft 439kts
31-Oct-19 07:20 20.084496 -67.934709 312 36044ft 439kts
31-Oct-19 07:21 20.161376 -68.035531 312 36049ft 438kts
31-Oct-19 07:22 20.238231 -68.136495 312 36049ft 439kts
31-Oct-19 07:23 20.315070 -68.237616 312 36049ft 439kts
31-Oct-19 07:23 20.379162 -68.322093 312 36048ft 439kts
31-Oct-19 07:25 20.456315 -68.449907 295 36051ft 446kts
31-Oct-19 07:26 20.502111 -68.572374 294 36049ft 446kts
31-Oct-19 07:26 20.539956 -68.673823 294 36046ft 446kts
31-Oct-19 07:28 20.593431 -68.817534 294 36046ft 446kts
31-Oct-19 07:29 20.639113 -68.940630 294 36046ft 447kts
31-Oct-19 07:29 20.677434 -69.044137 293 36047ft 450kts
31-Oct-19 07:30 20.723267 -69.168230 292 36047ft 448kts
31-Oct-19 07:31 20.768866 -69.291994 292 36047ft 448kts
31-Oct-19 07:32 20.814398 -69.416598 292 36047ft 448kts
31-Oct-19 07:33 20.859825 -69.540512 292 36048ft 448kts
31-Oct-19 07:34 20.905257 -69.664784 292 36046ft 448kts
31-Oct-19 07:35 20.950504 -69.788938 292 36046ft 448kts
31-Oct-19 07:36 20.995543 -69.913066 292 36046ft 448kts
31-Oct-19 07:37 21.040713 -70.037585 292 36046ft 448kts
31-Oct-19 07:38 21.085745 -70.162056 292 36046ft 448kts
31-Oct-19 07:39 21.130630 -70.285026 293 36048ft 448kts
31-Oct-19 07:40 21.176349 -70.409166 293 36048ft 448kts
31-Oct-19 07:41 21.221902 -70.533239 293 36049ft 448kts
31-Oct-19 07:42 21.267135 -70.657351 292 36048ft 448kts
31-Oct-19 07:43 21.312387 -70.781840 292 36047ft 448kts
31-Oct-19 07:44 21.357618 -70.906562 292 36047ft 451kts
31-Oct-19 07:45 21.403430 -71.033225 291 36047ft 456kts
31-Oct-19 07:46 21.452172 -71.158605 299 36050ft 455kts
31-Oct-19 07:47 21.515371 -71.275842 300 36048ft 455kts
31-Oct-19 07:48 21.578249 -71.393665 300 36048ft 455kts
31-Oct-19 07:49 21.641183 -71.511812 300 36049ft 455kts
31-Oct-19 07:50 21.703915 -71.629840 300 36049ft 455kts
31-Oct-19 07:51 21.766174 -71.747959 300 36046ft 455kts
31-Oct-19 07:52 21.828647 -71.866460 300 36046ft 455kts
31-Oct-19 07:53 21.890982 -71.984972 300 36047ft 455kts
31-Oct-19 07:54 21.953129 -72.103389 300 36047ft 455kts
31-Oct-19 07:55 22.015275 -72.222375 300 36048ft 455kts
31-Oct-19 07:56 22.077186 -72.340955 300 36048ft 455kts
31-Oct-19 07:57 22.139198 -72.460249 298 36048ft 455kts
31-Oct-19 07:58 22.197308 -72.581633 298 36049ft 455kts
31-Oct-19 07:59 22.256287 -72.702000 300 36047ft 454kts
31-Oct-19 08:00 22.319658 -72.819981 300 36046ft 455kts
31-Oct-19 08:01 22.382544 -72.938602 300 36046ft 455kts
31-Oct-19 08:02 22.445583 -73.057929 300 36069ft 460kts
31-Oct-19 08:03 22.509708 -73.179430 299 36074ft 468kts
31-Oct-19 08:04 22.574116 -73.301746 298 36075ft 468kts
31-Oct-19 08:05 22.638443 -73.424193 298 36076ft 467kts
31-Oct-19 08:06 22.702631 -73.546669 298 36073ft 468kts
31-Oct-19 08:07 22.766786 -73.669366 298 36066ft 468kts
31-Oct-19 08:08 22.830771 -73.792005 298 36068ft 468kts
31-Oct-19 08:09 22.894715 -73.914893 298 36074ft 468kts
31-Oct-19 08:10 22.958285 -74.037357 298 36076ft 466kts
31-Oct-19 08:11 23.021805 -74.160019 298 36077ft 465kts
31-Oct-19 08:12 23.085002 -74.282354 298 36077ft 464kts
31-Oct-19 08:13 23.148095 -74.404943 298 36074ft 465kts
31-Oct-19 08:14 23.210183 -74.528129 298 36075ft 464kts
31-Oct-19 08:15 23.272671 -74.651392 298 36076ft 465kts
31-Oct-19 08:16 23.334802 -74.774248 298 36072ft 464kts
31-Oct-19 08:17 23.397231 -74.898033 298 36082ft 465kts
31-Oct-19 08:18 23.459506 -75.021823 297 36104ft 470kts
31-Oct-19 08:19 23.522417 -75.147192 297 36126ft 473kts
31-Oct-19 08:20 23.586697 -75.272317 303 36133ft 473kts
31-Oct-19 08:21 23.663022 -75.389482 297 36134ft 472kts
31-Oct-19 08:22 23.707089 -75.523519 283 36132ft 469kts
31-Oct-19 08:23 23.741122 -75.660613 282 36131ft 469kts
31-Oct-19 08:24 23.775243 -75.798091 282 36128ft 469kts
31-Oct-19 08:25 23.809207 -75.935577 282 36129ft 469kts
31-Oct-19 08:26 23.842981 -76.072857 282 36130ft 469kts
31-Oct-19 08:27 23.876734 -76.210617 282 36131ft 469kts
31-Oct-19 08:28 23.910244 -76.347950 282 36132ft 469kts
31-Oct-19 08:29 23.943663 -76.485478 282 36133ft 468kts
31-Oct-19 08:30 23.977001 -76.623252 282 36134ft 468kts
31-Oct-19 08:31 24.010168 -76.760811 282 36130ft 468kts
31-Oct-19 08:32 24.043300 -76.898901 282 36131ft 471kts
31-Oct-19 08:33 24.076717 -77.038763 282 36132ft 475kts
31-Oct-19 08:34 24.109970 -77.178524 282 36126ft 475kts
31-Oct-19 08:35 24.143178 -77.318723 282 36127ft 475kts
31-Oct-19 08:36 24.194178 -77.452068 301 36131ft 480kts
31-Oct-19 08:37 24.266810 -77.574853 302 36130ft 480kts
31-Oct-19 08:38 24.339330 -77.698055 301 36124ft 480kts
31-Oct-19 08:39 24.411642 -77.821198 301 36126ft 480kts
31-Oct-19 08:40 24.483955 -77.944669 301 36127ft 480kts
31-Oct-19 08:41 24.555837 -78.067719 301 36128ft 480kts
31-Oct-19 08:42 24.627876 -78.191350 301 36130ft 480kts
31-Oct-19 08:43 24.699947 -78.315348 301 36131ft 480kts
31-Oct-19 08:44 24.771553 -78.438868 301 36133ft 480kts
31-Oct-19 08:45 24.842959 -78.562338 301 36127ft 466kts
31-Oct-19 08:46 24.911559 -78.681279 301 36131ft 469kts
31-Oct-19 08:47 24.981728 -78.803201 301 35033ft 480kts
31-Oct-19 08:48 25.056301 -78.933141 301 32601ft 501kts
31-Oct-19 08:49 25.128408 -79.059125 301 30087ft 469kts
31-Oct-19 08:50 25.195836 -79.177266 302 27470ft 443kts
31-Oct-19 08:51 25.259486 -79.289102 302 24863ft 419kts
31-Oct-19 08:52 25.319816 -79.395360 302 22260ft 399kts
31-Oct-19 08:53 25.377346 -79.496903 302 19664ft 382kts
31-Oct-19 08:54 25.431341 -79.592443 302 17807ft 351kts
31-Oct-19 08:55 25.481372 -79.681141 302 16002ft 330kts
31-Oct-19 08:56 25.528736 -79.765242 302 14189ft 315kts
31-Oct-19 08:57 25.592319 -79.826467 333 12394ft 300kts
31-Oct-19 08:58 25.666708 -79.865331 336 11023ft 294kts
31-Oct-19 08:59 25.735639 -79.911313 313 9619ft 291kts
31-Oct-19 09:00 25.780066 -79.984183 302 8264ft 265kts
31-Oct-19 09:01 25.805173 -80.055488 280 6841ft 245kts
31-Oct-19 09:02 25.819496 -80.123015 295 5420ft 211kts
31-Oct-19 09:03 25.846126 -80.179012 298 4909ft 205kts
31-Oct-19 09:04 25.873131 -80.234481 298 4465ft 204kts
31-Oct-19 09:05 25.900291 -80.289500 298 4022ft 201kts
31-Oct-19 09:06 25.927525 -80.344058 298 3587ft 200kts
31-Oct-19 09:07 25.923629 -80.396671 221 3165ft 188kts
31-Oct-19 09:08 25.887936 -80.434539 220 3118ft 169kts
31-Oct-19 09:09 25.851898 -80.442984 111 3132ft 159kts
31-Oct-19 09:10 25.842730 -80.391538 109 2148ft 161kts
31-Oct-19 09:11 25.825846 -80.353240 120 1382ft 140kts
31-Oct-19 09:12 25.807238 -80.317700 119 284ft 131kts
31-Oct-19 09:13 25.792775 -80.289561 120 10ft 36kts
31-Oct-19 09:14 25.793035 -80.285843 28 10ft 13kts
31-Oct-19 09:15 25.794154 -80.284088 8 10ft 0kts
31-Oct-19 09:16 25.794154 -80.284088 8 10ft 0kts

Navigation Log

Ident Type
Flight plan parsing failed, navigation log unavailable